sensor_id;sensor_type;location;lat;lon;timestamp;P1;durP1;ratioP1;P2;durP2;ratioP2
63965;SDS011;50151;52.030;5.350;2023-07-13T08:31:57;5.40;;;2.13;;
63965;SDS011;50151;52.030;5.350;2023-07-13T08:34:24;6.40;;;2.30;;
63965;SDS011;50151;52.030;5.350;2023-07-13T08:36:51;10.45;;;3.08;;
63965;SDS011;50151;52.030;5.350;2023-07-13T08:39:18;5.80;;;2.33;;
63965;SDS011;50151;52.030;5.350;2023-07-13T08:41:46;8.07;;;2.58;;
63965;SDS011;50151;52.030;5.350;2023-07-13T08:44:25;9.80;;;2.67;;
63965;SDS011;50151;52.030;5.350;2023-07-13T08:47:00;6.80;;;2.30;;
63965;SDS011;50151;52.030;5.350;2023-07-13T08:49:28;10.98;;;2.90;;
63965;SDS011;50151;52.030;5.350;2023-07-13T08:52:01;7.13;;;2.42;;
63965;SDS011;50151;52.030;5.350;2023-07-13T08:54:49;10.00;;;2.63;;
63965;SDS011;50151;52.030;5.350;2023-07-13T08:57:20;10.50;;;2.90;;
63965;SDS011;50151;52.030;5.350;2023-07-13T08:59:51;8.48;;;2.53;;
63965;SDS011;50151;52.030;5.350;2023-07-13T09:02:20;9.88;;;2.40;;
63965;SDS011;50151;52.030;5.350;2023-07-13T09:04:56;7.53;;;2.60;;
63965;SDS011;50151;52.030;5.350;2023-07-13T09:15:29;9.07;;;2.75;;
63965;SDS011;50151;52.030;5.350;2023-07-13T09:18:00;7.43;;;2.38;;
63965;SDS011;50151;52.030;5.350;2023-07-13T09:20:46;12.63;;;3.17;;
63965;SDS011;50151;52.030;5.350;2023-07-13T09:23:19;10.70;;;2.75;;
63965;SDS011;50151;52.030;5.350;2023-07-13T09:25:48;8.52;;;2.45;;
63965;SDS011;50151;52.030;5.350;2023-07-13T09:28:25;6.93;;;2.67;;
63965;SDS011;50151;52.030;5.350;2023-07-13T09:33:24;10.02;;;2.50;;
63965;SDS011;50151;52.030;5.350;2023-07-13T09:35:55;7.88;;;2.97;;
63965;SDS011;50151;52.030;5.350;2023-07-13T09:38:25;4.80;;;1.92;;
63965;SDS011;50151;52.030;5.350;2023-07-13T09:40:58;7.07;;;2.13;;
63965;SDS011;50151;52.030;5.350;2023-07-13T09:43:26;4.78;;;2.03;;
63965;SDS011;50151;52.030;5.350;2023-07-13T09:45:55;9.85;;;2.60;;
63965;SDS011;50151;52.030;5.350;2023-07-13T09:48:22;10.75;;;2.40;;
63965;SDS011;50151;52.030;5.350;2023-07-13T09:50:54;9.45;;;1.98;;
63965;SDS011;50151;52.030;5.350;2023-07-13T09:53:22;4.80;;;1.83;;
63965;SDS011;50151;52.030;5.350;2023-07-13T09:55:49;6.53;;;1.90;;
63965;SDS011;50151;52.030;5.350;2023-07-13T09:58:20;6.47;;;2.20;;
63965;SDS011;50151;52.030;5.350;2023-07-13T10:00:58;6.80;;;1.70;;
63965;SDS011;50151;52.030;5.350;2023-07-13T10:03:27;6.23;;;1.77;;
63965;SDS011;50151;52.030;5.350;2023-07-13T10:06:15;4.03;;;1.77;;
63965;SDS011;50151;52.030;5.350;2023-07-13T10:08:46;6.30;;;1.58;;
63965;SDS011;50151;52.030;5.350;2023-07-13T10:13:56;7.53;;;1.60;;
63965;SDS011;50151;52.030;5.350;2023-07-13T10:16:30;6.70;;;1.95;;
63965;SDS011;50151;52.030;5.350;2023-07-13T10:19:34;5.80;;;2.00;;
63965;SDS011;50151;52.030;5.350;2023-07-13T10:21:58;5.00;;;1.85;;
63965;SDS011;50151;52.030;5.350;2023-07-13T10:24:29;6.25;;;1.85;;
63965;SDS011;50151;52.030;5.350;2023-07-13T10:29:47;7.75;;;2.00;;
63965;SDS011;50151;52.030;5.350;2023-07-13T10:32:27;11.80;;;2.03;;
63965;SDS011;50151;52.030;5.350;2023-07-13T10:34:55;7.00;;;2.00;;
63965;SDS011;50151;52.030;5.350;2023-07-13T10:37:28;8.95;;;2.03;;
63965;SDS011;50151;52.030;5.350;2023-07-13T10:39:59;8.80;;;2.15;;
63965;SDS011;50151;52.030;5.350;2023-07-13T10:42:33;6.20;;;1.88;;
63965;SDS011;50151;52.030;5.350;2023-07-13T10:45:16;7.95;;;2.10;;
63965;SDS011;50151;52.030;5.350;2023-07-13T10:47:47;4.90;;;1.80;;
63965;SDS011;50151;52.030;5.350;2023-07-13T10:50:20;7.65;;;1.98;;
63965;SDS011;50151;52.030;5.350;2023-07-13T10:52:50;6.20;;;1.60;;
63965;SDS011;50151;52.030;5.350;2023-07-13T10:58:21;6.40;;;1.50;;
63965;SDS011;50151;52.030;5.350;2023-07-13T11:01:08;4.72;;;1.70;;
63965;SDS011;50151;52.030;5.350;2023-07-13T11:06:34;2.30;;;1.40;;
63965;SDS011;50151;52.030;5.350;2023-07-13T11:12:00;6.65;;;2.00;;
63965;SDS011;50151;52.030;5.350;2023-07-13T11:16:56;5.05;;;1.80;;
63965;SDS011;50151;52.030;5.350;2023-07-13T11:19:25;6.68;;;2.60;;
63965;SDS011;50151;52.030;5.350;2023-07-13T11:25:20;6.40;;;2.10;;
63965;SDS011;50151;52.030;5.350;2023-07-13T11:30:46;4.55;;;2.00;;
63965;SDS011;50151;52.030;5.350;2023-07-13T11:36:16;7.68;;;2.08;;
63965;SDS011;50151;52.030;5.350;2023-07-13T11:38:58;3.10;;;1.75;;
63965;SDS011;50151;52.030;5.350;2023-07-13T11:41:54;4.82;;;1.80;;
63965;SDS011;50151;52.030;5.350;2023-07-13T11:44:41;5.43;;;2.00;;
63965;SDS011;50151;52.030;5.350;2023-07-13T11:47:29;6.10;;;1.80;;
63965;SDS011;50151;52.030;5.350;2023-07-13T11:49:57;7.40;;;1.95;;
63965;SDS011;50151;52.030;5.350;2023-07-13T11:52:31;4.65;;;1.80;;
63965;SDS011;50151;52.030;5.350;2023-07-13T11:55:02;5.20;;;1.92;;
63965;SDS011;50151;52.030;5.350;2023-07-13T11:57:41;6.78;;;2.58;;
63965;SDS011;50151;52.030;5.350;2023-07-13T12:00:14;4.97;;;1.52;;
63965;SDS011;50151;52.030;5.350;2023-07-13T12:02:47;5.30;;;1.67;;
63965;SDS011;50151;52.030;5.350;2023-07-13T12:05:16;4.10;;;1.70;;
63965;SDS011;50151;52.030;5.350;2023-07-13T12:07:45;7.45;;;2.00;;
63965;SDS011;50151;52.030;5.350;2023-07-13T12:12:57;2.17;;;1.10;;
63965;SDS011;50151;52.030;5.350;2023-07-13T12:15:48;8.98;;;2.40;;
63965;SDS011;50151;52.030;5.350;2023-07-13T12:18:19;3.42;;;1.77;;
63965;SDS011;50151;52.030;5.350;2023-07-13T12:20:48;2.70;;;1.33;;
63965;SDS011;50151;52.030;5.350;2023-07-13T12:26:02;6.57;;;1.98;;
63965;SDS011;50151;52.030;5.350;2023-07-13T12:28:36;4.65;;;2.03;;
63965;SDS011;50151;52.030;5.350;2023-07-13T12:33:34;6.57;;;1.98;;
63965;SDS011;50151;52.030;5.350;2023-07-13T12:36:04;4.25;;;1.70;;
63965;SDS011;50151;52.030;5.350;2023-07-13T12:38:32;3.60;;;1.60;;
63965;SDS011;50151;52.030;5.350;2023-07-13T12:41:00;5.68;;;2.03;;
63965;SDS011;50151;52.030;5.350;2023-07-13T12:43:28;5.35;;;2.00;;
63965;SDS011;50151;52.030;5.350;2023-07-13T12:48:42;5.63;;;2.00;;
63965;SDS011;50151;52.030;5.350;2023-07-13T12:51:24;2.38;;;1.13;;
63965;SDS011;50151;52.030;5.350;2023-07-13T12:54:13;4.93;;;1.65;;
63965;SDS011;50151;52.030;5.350;2023-07-13T12:56:44;5.15;;;2.08;;
63965;SDS011;50151;52.030;5.350;2023-07-13T12:59:19;2.42;;;1.60;;
63965;SDS011;50151;52.030;5.350;2023-07-13T13:01:48;5.93;;;1.95;;
63965;SDS011;50151;52.030;5.350;2023-07-13T13:04:16;3.70;;;1.70;;
63965;SDS011;50151;52.030;5.350;2023-07-13T13:06:48;3.17;;;1.60;;
63965;SDS011;50151;52.030;5.350;2023-07-13T13:09:27;6.32;;;1.60;;
63965;SDS011;50151;52.030;5.350;2023-07-13T13:11:53;2.30;;;1.27;;
63965;SDS011;50151;52.030;5.350;2023-07-13T13:14:21;3.72;;;1.77;;
63965;SDS011;50151;52.030;5.350;2023-07-13T13:16:48;4.45;;;1.70;;
63965;SDS011;50151;52.030;5.350;2023-07-13T13:19:19;3.63;;;1.80;;
63965;SDS011;50151;52.030;5.350;2023-07-13T13:21:53;3.50;;;1.80;;
63965;SDS011;50151;52.030;5.350;2023-07-13T13:24:23;2.75;;;1.58;;
63965;SDS011;50151;52.030;5.350;2023-07-13T13:26:51;4.13;;;1.70;;
63965;SDS011;50151;52.030;5.350;2023-07-13T13:29:21;4.18;;;1.90;;
63965;SDS011;50151;52.030;5.350;2023-07-13T13:31:51;7.97;;;1.98;;
63965;SDS011;50151;52.030;5.350;2023-07-13T13:34:20;4.82;;;1.65;;
63965;SDS011;50151;52.030;5.350;2023-07-13T13:36:51;4.03;;;1.77;;
63965;SDS011;50151;52.030;5.350;2023-07-13T13:39:26;3.08;;;1.20;;
63965;SDS011;50151;52.030;5.350;2023-07-13T13:41:57;6.10;;;1.67;;
63965;SDS011;50151;52.030;5.350;2023-07-13T13:44:25;4.25;;;1.83;;
63965;SDS011;50151;52.030;5.350;2023-07-13T13:46:52;5.05;;;2.20;;
63965;SDS011;50151;52.030;5.350;2023-07-13T13:49:23;4.35;;;1.88;;
63965;SDS011;50151;52.030;5.350;2023-07-13T13:51:52;5.03;;;1.88;;
63965;SDS011;50151;52.030;5.350;2023-07-13T13:54:20;3.75;;;1.60;;
63965;SDS011;50151;52.030;5.350;2023-07-13T13:56:49;5.18;;;1.63;;
63965;SDS011;50151;52.030;5.350;2023-07-13T13:59:18;1.60;;;0.85;;
63965;SDS011;50151;52.030;5.350;2023-07-13T14:01:46;3.70;;;1.77;;
63965;SDS011;50151;52.030;5.350;2023-07-13T14:04:16;4.30;;;1.58;;
63965;SDS011;50151;52.030;5.350;2023-07-13T14:06:46;2.78;;;1.70;;
63965;SDS011;50151;52.030;5.350;2023-07-13T14:09:14;2.58;;;1.40;;
63965;SDS011;50151;52.030;5.350;2023-07-13T14:11:44;4.20;;;1.88;;
63965;SDS011;50151;52.030;5.350;2023-07-13T14:14:17;4.55;;;2.00;;
63965;SDS011;50151;52.030;5.350;2023-07-13T14:16:49;5.05;;;1.83;;
63965;SDS011;50151;52.030;5.350;2023-07-13T14:19:21;8.63;;;1.75;;
63965;SDS011;50151;52.030;5.350;2023-07-13T14:21:49;4.95;;;1.80;;
63965;SDS011;50151;52.030;5.350;2023-07-13T14:24:16;3.60;;;1.63;;
63965;SDS011;50151;52.030;5.350;2023-07-13T14:26:45;3.50;;;1.50;;
63965;SDS011;50151;52.030;5.350;2023-07-13T14:29:14;3.65;;;1.80;;
63965;SDS011;50151;52.030;5.350;2023-07-13T14:31:48;2.75;;;1.25;;
63965;SDS011;50151;52.030;5.350;2023-07-13T14:34:16;5.22;;;1.77;;
63965;SDS011;50151;52.030;5.350;2023-07-13T14:36:44;4.45;;;1.58;;
63965;SDS011;50151;52.030;5.350;2023-07-13T14:39:21;6.18;;;1.58;;
63965;SDS011;50151;52.030;5.350;2023-07-13T14:41:50;2.85;;;1.05;;
63965;SDS011;50151;52.030;5.350;2023-07-13T14:44:21;2.40;;;1.10;;
63965;SDS011;50151;52.030;5.350;2023-07-13T14:46:52;4.70;;;1.38;;
63965;SDS011;50151;52.030;5.350;2023-07-13T14:54:58;5.05;;;1.40;;
63965;SDS011;50151;52.030;5.350;2023-07-13T14:57:26;4.30;;;1.42;;
63965;SDS011;50151;52.030;5.350;2023-07-13T14:59:52;4.30;;;1.70;;
63965;SDS011;50151;52.030;5.350;2023-07-13T15:02:35;3.80;;;1.58;;
63965;SDS011;50151;52.030;5.350;2023-07-13T15:05:18;3.80;;;1.40;;
63965;SDS011;50151;52.030;5.350;2023-07-13T15:07:48;3.60;;;1.52;;
63965;SDS011;50151;52.030;5.350;2023-07-13T15:10:17;4.85;;;1.25;;
63965;SDS011;50151;52.030;5.350;2023-07-13T15:12:50;3.83;;;1.40;;
63965;SDS011;50151;52.030;5.350;2023-07-13T15:15:19;5.53;;;1.30;;
63965;SDS011;50151;52.030;5.350;2023-07-13T15:17:47;2.13;;;1.00;;
63965;SDS011;50151;52.030;5.350;2023-07-13T15:22:44;3.20;;;1.30;;
63965;SDS011;50151;52.030;5.350;2023-07-13T15:25:16;6.30;;;1.42;;
63965;SDS011;50151;52.030;5.350;2023-07-13T15:27:48;2.60;;;1.35;;
63965;SDS011;50151;52.030;5.350;2023-07-13T15:30:15;2.67;;;1.20;;
63965;SDS011;50151;52.030;5.350;2023-07-13T15:32:42;2.88;;;1.10;;
63965;SDS011;50151;52.030;5.350;2023-07-13T15:35:18;3.67;;;1.08;;
63965;SDS011;50151;52.030;5.350;2023-07-13T15:37:48;2.38;;;1.10;;
63965;SDS011;50151;52.030;5.350;2023-07-13T15:40:16;4.22;;;1.42;;
63965;SDS011;50151;52.030;5.350;2023-07-13T15:42:44;3.85;;;1.45;;
63965;SDS011;50151;52.030;5.350;2023-07-13T15:45:19;3.33;;;1.30;;
63965;SDS011;50151;52.030;5.350;2023-07-13T15:47:49;4.13;;;1.58;;
63965;SDS011;50151;52.030;5.350;2023-07-13T15:50:19;3.65;;;1.40;;
63965;SDS011;50151;52.030;5.350;2023-07-13T15:52:50;3.80;;;1.40;;
63965;SDS011;50151;52.030;5.350;2023-07-13T15:55:19;3.75;;;1.33;;
63965;SDS011;50151;52.030;5.350;2023-07-13T15:57:48;2.53;;;1.15;;
63965;SDS011;50151;52.030;5.350;2023-07-13T16:00:21;6.38;;;1.60;;
63965;SDS011;50151;52.030;5.350;2023-07-13T16:02:52;3.13;;;1.52;;
63965;SDS011;50151;52.030;5.350;2023-07-13T16:05:21;3.25;;;1.42;;
63965;SDS011;50151;52.030;5.350;2023-07-13T16:07:50;4.40;;;1.33;;
63965;SDS011;50151;52.030;5.350;2023-07-13T16:10:22;8.20;;;1.33;;
63965;SDS011;50151;52.030;5.350;2023-07-13T16:12:53;2.53;;;1.10;;
63965;SDS011;50151;52.030;5.350;2023-07-13T16:15:21;4.38;;;1.48;;
63965;SDS011;50151;52.030;5.350;2023-07-13T16:17:48;3.95;;;1.30;;
63965;SDS011;50151;52.030;5.350;2023-07-13T16:20:17;5.00;;;1.20;;
63965;SDS011;50151;52.030;5.350;2023-07-13T16:22:48;3.20;;;1.40;;
63965;SDS011;50151;52.030;5.350;2023-07-13T16:25:19;3.67;;;1.58;;
63965;SDS011;50151;52.030;5.350;2023-07-13T16:27:53;4.72;;;1.40;;
63965;SDS011;50151;52.030;5.350;2023-07-13T16:30:27;3.15;;;1.50;;
63965;SDS011;50151;52.030;5.350;2023-07-13T16:32:56;4.28;;;1.35;;
63965;SDS011;50151;52.030;5.350;2023-07-13T16:35:29;4.47;;;1.50;;
63965;SDS011;50151;52.030;5.350;2023-07-13T16:38:02;2.35;;;1.20;;
63965;SDS011;50151;52.030;5.350;2023-07-13T16:40:35;3.65;;;1.35;;
63965;SDS011;50151;52.030;5.350;2023-07-13T16:43:05;4.18;;;1.40;;
63965;SDS011;50151;52.030;5.350;2023-07-13T16:45:37;2.38;;;1.23;;
63965;SDS011;50151;52.030;5.350;2023-07-13T16:48:12;2.28;;;0.90;;
63965;SDS011;50151;52.030;5.350;2023-07-13T16:50:50;4.28;;;1.20;;
63965;SDS011;50151;52.030;5.350;2023-07-13T16:53:24;2.20;;;1.20;;
63965;SDS011;50151;52.030;5.350;2023-07-13T16:55:54;2.60;;;1.30;;
63965;SDS011;50151;52.030;5.350;2023-07-13T16:58:23;2.30;;;1.00;;
63965;SDS011;50151;52.030;5.350;2023-07-13T17:00:52;1.90;;;1.05;;
63965;SDS011;50151;52.030;5.350;2023-07-13T17:03:19;4.28;;;1.35;;
63965;SDS011;50151;52.030;5.350;2023-07-13T17:05:47;3.15;;;1.27;;
63965;SDS011;50151;52.030;5.350;2023-07-13T17:08:16;4.13;;;1.20;;
63965;SDS011;50151;52.030;5.350;2023-07-13T17:10:55;3.33;;;1.40;;
63965;SDS011;50151;52.030;5.350;2023-07-13T17:13:25;2.92;;;1.27;;
63965;SDS011;50151;52.030;5.350;2023-07-13T17:15:54;3.55;;;1.40;;
63965;SDS011;50151;52.030;5.350;2023-07-13T17:18:26;2.53;;;1.20;;
63965;SDS011;50151;52.030;5.350;2023-07-13T17:21:04;4.72;;;1.27;;
63965;SDS011;50151;52.030;5.350;2023-07-13T17:23:34;3.03;;;1.15;;
63965;SDS011;50151;52.030;5.350;2023-07-13T17:26:01;2.83;;;1.20;;
63965;SDS011;50151;52.030;5.350;2023-07-13T17:28:30;2.47;;;1.10;;
63965;SDS011;50151;52.030;5.350;2023-07-13T17:30:58;3.90;;;1.58;;
63965;SDS011;50151;52.030;5.350;2023-07-13T17:33:27;5.47;;;1.40;;
63965;SDS011;50151;52.030;5.350;2023-07-13T17:35:57;4.20;;;1.20;;
63965;SDS011;50151;52.030;5.350;2023-07-13T17:38:35;4.57;;;1.08;;
63965;SDS011;50151;52.030;5.350;2023-07-13T17:43:38;3.45;;;1.17;;
63965;SDS011;50151;52.030;5.350;2023-07-13T17:46:15;2.42;;;1.10;;
63965;SDS011;50151;52.030;5.350;2023-07-13T17:48:47;3.78;;;1.20;;
63965;SDS011;50151;52.030;5.350;2023-07-13T17:51:17;3.97;;;1.60;;
63965;SDS011;50151;52.030;5.350;2023-07-13T17:53:49;4.03;;;1.17;;
63965;SDS011;50151;52.030;5.350;2023-07-13T17:56:16;2.97;;;1.38;;
63965;SDS011;50151;52.030;5.350;2023-07-13T17:58:44;2.90;;;1.27;;
63965;SDS011;50151;52.030;5.350;2023-07-13T18:01:16;4.05;;;1.40;;
63965;SDS011;50151;52.030;5.350;2023-07-13T18:03:49;4.45;;;1.70;;
63965;SDS011;50151;52.030;5.350;2023-07-13T18:06:28;4.57;;;1.20;;
63965;SDS011;50151;52.030;5.350;2023-07-13T18:09:01;4.32;;;1.25;;
63965;SDS011;50151;52.030;5.350;2023-07-13T18:11:38;6.72;;;1.70;;
63965;SDS011;50151;52.030;5.350;2023-07-13T18:14:06;3.67;;;1.50;;
63965;SDS011;50151;52.030;5.350;2023-07-13T18:16:33;4.32;;;1.33;;
63965;SDS011;50151;52.030;5.350;2023-07-13T18:19:01;4.63;;;1.75;;
63965;SDS011;50151;52.030;5.350;2023-07-13T18:21:30;4.97;;;1.88;;
63965;SDS011;50151;52.030;5.350;2023-07-13T18:23:59;4.30;;;1.60;;
63965;SDS011;50151;52.030;5.350;2023-07-13T18:26:27;4.05;;;1.58;;
63965;SDS011;50151;52.030;5.350;2023-07-13T18:28:54;4.53;;;1.60;;
63965;SDS011;50151;52.030;5.350;2023-07-13T18:31:22;5.15;;;1.50;;
63965;SDS011;50151;52.030;5.350;2023-07-13T18:33:55;3.60;;;1.50;;
63965;SDS011;50151;52.030;5.350;2023-07-13T18:36:24;4.85;;;1.40;;
63965;SDS011;50151;52.030;5.350;2023-07-13T18:38:51;7.93;;;1.63;;
63965;SDS011;50151;52.030;5.350;2023-07-13T18:41:19;2.45;;;1.10;;
63965;SDS011;50151;52.030;5.350;2023-07-13T18:43:47;5.25;;;1.90;;
63965;SDS011;50151;52.030;5.350;2023-07-13T18:49:02;5.75;;;1.60;;
63965;SDS011;50151;52.030;5.350;2023-07-13T18:51:30;5.72;;;1.55;;
63965;SDS011;50151;52.030;5.350;2023-07-13T18:53:57;4.70;;;1.55;;
63965;SDS011;50151;52.030;5.350;2023-07-13T18:56:25;6.25;;;1.73;;
63965;SDS011;50151;52.030;5.350;2023-07-13T18:58:52;4.25;;;1.58;;
63965;SDS011;50151;52.030;5.350;2023-07-13T19:01:22;6.15;;;1.40;;
63965;SDS011;50151;52.030;5.350;2023-07-13T19:03:55;5.78;;;1.90;;
63965;SDS011;50151;52.030;5.350;2023-07-13T19:06:22;4.35;;;1.60;;
63965;SDS011;50151;52.030;5.350;2023-07-13T19:08:49;5.43;;;1.70;;
63965;SDS011;50151;52.030;5.350;2023-07-13T19:11:17;6.93;;;1.60;;
63965;SDS011;50151;52.030;5.350;2023-07-13T19:13:46;7.68;;;1.38;;
63965;SDS011;50151;52.030;5.350;2023-07-13T19:16:17;5.25;;;1.48;;
63965;SDS011;50151;52.030;5.350;2023-07-13T19:18:45;4.00;;;1.70;;
63965;SDS011;50151;52.030;5.350;2023-07-13T19:21:25;5.05;;;1.33;;
63965;SDS011;50151;52.030;5.350;2023-07-13T19:24:04;4.72;;;1.50;;
63965;SDS011;50151;52.030;5.350;2023-07-13T19:26:36;5.20;;;1.70;;
63965;SDS011;50151;52.030;5.350;2023-07-13T19:29:04;7.28;;;1.25;;
63965;SDS011;50151;52.030;5.350;2023-07-13T19:31:33;7.75;;;1.65;;
63965;SDS011;50151;52.030;5.350;2023-07-13T19:36:35;5.28;;;1.75;;
63965;SDS011;50151;52.030;5.350;2023-07-13T19:39:04;3.22;;;1.30;;
63965;SDS011;50151;52.030;5.350;2023-07-13T19:41:38;4.95;;;1.30;;
63965;SDS011;50151;52.030;5.350;2023-07-13T19:44:08;4.15;;;1.80;;
63965;SDS011;50151;52.030;5.350;2023-07-13T19:46:38;7.13;;;1.90;;
63965;SDS011;50151;52.030;5.350;2023-07-13T19:49:07;5.40;;;1.50;;
63965;SDS011;50151;52.030;5.350;2023-07-13T19:51:34;3.38;;;1.60;;
63965;SDS011;50151;52.030;5.350;2023-07-13T19:54:03;3.50;;;1.25;;
63965;SDS011;50151;52.030;5.350;2023-07-13T19:56:37;4.63;;;1.55;;
63965;SDS011;50151;52.030;5.350;2023-07-13T19:59:19;4.82;;;1.50;;
63965;SDS011;50151;52.030;5.350;2023-07-13T20:01:54;4.93;;;1.45;;
63965;SDS011;50151;52.030;5.350;2023-07-13T20:04:21;4.30;;;1.70;;
63965;SDS011;50151;52.030;5.350;2023-07-13T20:06:49;4.70;;;1.60;;
63965;SDS011;50151;52.030;5.350;2023-07-13T20:09:22;5.30;;;1.45;;
63965;SDS011;50151;52.030;5.350;2023-07-13T20:11:54;4.72;;;1.40;;
63965;SDS011;50151;52.030;5.350;2023-07-13T20:14:24;2.58;;;1.50;;
63965;SDS011;50151;52.030;5.350;2023-07-13T20:16:57;4.43;;;1.50;;
63965;SDS011;50151;52.030;5.350;2023-07-13T20:19:32;3.75;;;1.42;;
63965;SDS011;50151;52.030;5.350;2023-07-13T20:22:01;5.50;;;1.80;;
63965;SDS011;50151;52.030;5.350;2023-07-13T20:24:29;4.57;;;1.60;;
63965;SDS011;50151;52.030;5.350;2023-07-13T20:26:56;4.90;;;1.58;;
63965;SDS011;50151;52.030;5.350;2023-07-13T20:29:23;7.25;;;1.60;;
63965;SDS011;50151;52.030;5.350;2023-07-13T20:31:50;5.85;;;2.00;;
